Airfield :
LOGIN :

Register | Disclaimer

   EN    FR    IT 

 










Legend :    VFR   Marginal VFR   IFR   Intensive IFR   Very Intensive IFR
Visi :
Ceiling :
>= 8 km
>= 3000ft
5 to 8 km
1000 to 3000 ft
1500m to 5 km
500 to 1000 ft
800 to 1500m
200 to 500 ft
< 800m
< 200 ft
Symbols :   Thunderstorms  Fog  Heavy snow  Heavy precipitations  Wind > 20 kt
SIGMETs :     Misc.  Thunderstorms  Icing  Turbulence  Mountain Waves  Volcanic Ashes







- Airport Elevation : 357 ft
- IATA code : TUF
- Download approach charts


LFOT - Tours

CURRENT METAR :
  • 161730Z AUTO 29008KT 240V330 CAVOK 29/11 Q1013 TEMPO 4000 SHRA SCT070CB

EXPIRED METARs :
  • 161700Z AUTO 26008KT 230V300 CAVOK 29/11 Q1013 NOSIG
  • 161630Z AUTO 30007KT 260V340 CAVOK 30/10 Q1013 NOSIG
  • 161600Z AUTO 29008KT 260V330 CAVOK 30/10 Q1013 NOSIG
  • 161530Z AUTO 28009KT 250V330 CAVOK 30/11 Q1013 NOSIG
  • 161500Z AUTO 28008KT 240V320 CAVOK 30/10 Q1013 TEMPO 4000 SHRA SCT070CB

TAF TAF LFOT
Valid from the 16 at 18:00 until the 17 at 18:00 UTC


161700Z 1618/1718 26006KT CAVOK
PROB30
TEMPO 1618/1620 4000 SHRA SCT070CB
No reported NOTAMs for that airfield.



MET'MAP, your aeronautical weather chart ! - Copyright ORBIFLY December 2007 - Disclaimer

ORBIFLY MET'MAP TEAM :

Programming & Development : Alexandra Zaïnal
Concept & Development : Baudouin d'Aumeries
Co-Development & Prog : Marc-Olivier Méhu
Technical & hardware support : Manuel Goepfert

Contact : metmap@orbifly.com




SOURCES & CREDITS :

   NOAA